Список аэропортов
Фактическая погода:

15:00
Температура: -12°C
Ветер: юго-восточный 3 м/с
Видимость: 10 км
Давление: 763 мм рт. ст.
1016.8 гПа (-1.8)

Облачность: 7-8/0
перистые
выше 2,5 км
Время (МСК)Темп. СВетерВлажностьДавлениеОблачностьОсадки
15:00-8З, 5 м/с71%1024 гПас прояснениями
16:00-8З, 4 м/с73%1025 гПамалооблачно
17:00-9З, 3 м/с78%1025 гПас прояснениями
18:00-10З, 3 м/с82%1026 гПас прояснениями
19:00-12ЮЗ, 2 м/с85%1026 гПас прояснениями
20:00-13ЮЗ, 2 м/с86%1026 гПас прояснениями
21:00-13ЮЗ, 2 м/с86%1026 гПас прояснениями
22:00-13З, 3 м/с84%1027 гПас прояснениями
23:00-14З, 2 м/с85%1027 гПамалооблачно
24 февраля
00:00-16З, 2 м/с86%1027 гПаясно
01:00-17ЮЗ, 2 м/с86%1027 гПаясно
02:00-18ЮЗ, 2 м/с87%1027 гПаясно
03:00-18ЮЗ, 2 м/с86%1027 гПаясно
04:00-19ЮЗ, 2 м/с86%1027 гПаясно
05:00-20ЮЗ, 2 м/с86%1027 гПаоблачно
06:00-21ЮЗ, 2 м/с86%1027 гПас прояснениями
07:00-22ЮЗ, 2 м/с86%1027 гПаоблачно
08:00-22ЮЗ, 2 м/с84%1027 гПаоблачно
09:00-20ЮЗ, 1 м/с81%1027 гПаоблачно
10:00-17Ю, 1 м/с77%1027 гПаоблачно
11:00-12Ю, 2 м/с71%1026 гПаоблачно
12:00-9Ю, 2 м/с59%1026 гПаоблачно
13:00-7Ю, 3 м/с49%1025 гПаоблачно
14:00-6Ю, 3 м/с46%1025 гПаоблачно
15:00-6Ю, 3 м/с43%1024 гПаоблачно
16:00-6Ю, 3 м/с45%1023 гПаоблачно
17:00-6Ю, 3 м/с53%1023 гПаоблачно
18:00-8Ю, 4 м/с62%1023 гПаоблачно
19:00-9Ю, 4 м/с66%1023 гПаоблачно
20:00-9Ю, 4 м/с70%1022 гПаоблачно
21:00-9Ю, 4 м/с70%1021 гПаоблачно
22:00-9Ю, 3 м/с72%1021 гПаоблачно
23:00-9Ю, 3 м/с75%1020 гПаоблачно
25 февраля
00:00-9Ю, 3 м/с78%1020 гПаоблачно
01:00-9ЮЗ, 3 м/с82%1020 гПас прояснениями
02:00-11Ю, 2 м/с85%1019 гПаясно
03:00-12Ю, 2 м/с86%1018 гПаясно
04:00-13Ю, 2 м/с87%1018 гПаясно
05:00-15Ю, 2 м/с87%1017 гПаясно
06:00-15Ю, 2 м/с88%1017 гПаясно
07:00-16ЮВ, 3 м/с88%1016 гПас прояснениями
08:00-15Ю, 3 м/с87%1015 гПамалооблачно
09:00-14ЮВ, 3 м/с84%1015 гПамалооблачно
10:00-11ЮВ, 4 м/с81%1014 гПаоблачно
11:00-9ЮВ, 5 м/с79%1013 гПаоблачно
12:00-8ЮВ, 5 м/с80%1011 гПаоблачно
13:00-7ЮВ, 5 м/с81%1011 гПаоблачно
14:00-7ЮВ, 6 м/с82%1009 гПаоблачно
15:00-6ЮВ, 6 м/с85%1008 гПаоблачно